ADDS METAR Data INFO
IDs: Format: Raw Decoded Include TAF

Data at: 0836 UTC 21 Oct 2017

KPMP 210753Z AUTO 07013G24KT 8SM SCT023 BKN030 OVC085 27/ A3000 RMK AO2 SLP159 T0272
KPMP 210653Z AUTO 07014KT 8SM SCT026 SCT031 BKN039 27/ A3001 RMK AO2 SLP163 T0272
KPMP 210553Z AUTO 07017G23KT 8SM FEW029 SCT055 SCT070 27/ A3003 RMK AO2 SLP169 T0272 10278 20267 58007
KPMP 210453Z AUTO 06013G20KT 8SM SCT025 BKN049 27/ A3004 RMK AO2 SLP173 T0272 403000267
KPMP 210353Z AUTO 07014KT 8SM FEW024 BKN033 BKN042 27/ A3005 RMK AO2 SLP176 T0272
KPMP 210253Z AUTO 06014G21KT 8SM FEW028 BKN035 27/22 A3005 RMK AO2 SLP176 T02720222 51009
KPMP 210153Z AUTO 07017G25KT 9SM FEW029 SCT050 BKN065 28/22 A3004 RMK AO2 SLP174 T02780217
KPMP 210053Z 07014G24KT 10SM FEW029 BKN042 BKN055 28/22 A3004 RMK AO2 SLP172 T02780217
KPMP 202353Z 06015G21KT 10SM FEW029 BKN037 BKN100 28/22 A3002 RMK AO2 PK WND 06026/2301 SLP167 60002 T02780217 10300 20272 53010
KPMP 202300Z 05019G25KT 10SM SCT026 BKN036 BKN044 28/22 A3001 RMK AO2 T02780217
KPMP 202253Z 06016G25KT 10SM BKN028 BKN043 BKN070 28/22 A3001 RMK AO2 PK WND 07026/2210 RAB05E15 SLP161 P0000 T02780222
KPMP 202212Z 06014G26KT 10SM -RA BKN028 BKN043 BKN070 28/22 A3000 RMK AO2 PK WND 07026/2210 RAB05 P0000 T02780222
KPMP 202153Z 06018G23KT 8SM SCT029 OVC060 28/22 A3000 RMK AO2 PK WND 07027/2102 SLP158 T02780222
KPMP 202053Z 07015G27KT 9SM BKN075 28/23 A2999 RMK AO2 PK WND 08027/2046 RAE04 SLP156 P0000 60002 T02830233 56009
KPMP 201953Z 09017G25KT 10SM RA SCT021 SCT026 SCT031 28/24 A2999 RMK AO2 RAB50 SLP156 P0002 T02780239
KPMP 201903Z 07014G22KT 10SM SCT021 SCT026 SCT031 29/24 A3000 RMK AO2 T02890239
KPMP 201853Z 06015G22KT 10SM SCT021 BKN026 BKN031 29/24 A3000 RMK AO2 SLP160 T02890239
KPMP 201846Z 06015G23KT 10SM SCT021 BKN028 BKN036 29/24 A3000 RMK AO2 T02940244
KPMP 201753Z 07015G22KT 8SM FEW022 BKN070 29/23 A3002 RMK AO2 SLP166 60000 T02940233 10300 20272 58013
KPMP 201653Z 07016G21KT 10SM SCT020 SCT043 SCT250 30/23 A3004 RMK AO2 RAB28E42 SLP174 P0000 T03000233
KPMP 201553Z COR 07013G19KT 10SM SCT025 SCT250 30/23 A3006 RMK AO2 SLP179 T03000233
KPMP 201453Z 08014G19KT 8SM SCT021 BKN250 29/24 A3006 RMK AO2 SLP179 T02940239 51010
KPMP 201353Z 06010KT 9SM FEW023 BKN250 28/23 A3005 RMK AO2 SLP178 T02830233
KPMP 201253Z 07013KT 10SM SCT250 28/23 A3004 RMK AO2 SLP173 T02780228
KPMP 201153Z 08007KT 9SM SCT025 27/23 A3003 RMK AO2 SLP169 60000 70011 T02720228 10272 20267 53007
KPMP 201053Z 07008KT 10SM FEW023 SCT031 27/23 A3002 RMK AO2 SLP167 T02720228
KPMP 200953Z AUTO 06008KT 10SM SCT023 SCT028 27/23 A3001 RMK AO2 RAE17 SLP163 P0000 T02670233
KPMP 200943Z AUTO 06007KT 10SM SCT023 27/23 A3001 RMK AO2 RAE17 P0000 T02670233
KPMP 200929Z AUTO 05008KT 9SM SCT021 BKN028 BKN035 27/23 A3001 RMK AO2 RAE17 P0000 T02670233
KPMP 200853Z AUTO 06007KT 7SM -RA FEW022 SCT033 BKN044 27/24 A3001 RMK AO2 RAB47 SLP162 P0000 60000 T02670239 55006
KPMP 200800Z AUTO 06010KT 9SM FEW023 SCT028 BKN060 27/23 A3000 RMK AO2 T02720233
KPMP 200753Z AUTO 06012KT 10SM SCT021 BKN029 BKN039 27/23 A3000 RMK AO2 RAB35E48 SLP161 P0000 T02720233
KPMP 200653Z AUTO 07011KT 10SM SCT024 27/23 A3001 RMK AO2 RAB09E18 SLP164 P0000 T02720228
KPMP 200603Z AUTO 07012KT 9SM SCT024 27/23 A3002 RMK AO2 T02720228
KPMP 200553Z AUTO 06008KT 9SM SCT024 BKN028 27/23 A3002 RMK AO2 SLP168 60000 T02720233 10272 20267 58006
KPMP 200453Z AUTO 06011KT 10SM SCT024 27/23 A3003 RMK AO2 RAB0354E06 SLP171 P0000 T02720228 403000239
KPMP 200429Z AUTO 06012KT 9SM SCT026 SCT035 BKN060 27/22 A3004 RMK AO2 RAB0354E06 P0000 T02720222
KPMP 200353Z AUTO 06012KT 9SM BKN025 BKN031 BKN055 27/23 A3004 RMK AO2 SLP173 T02720228
KPMP 200339Z AUTO 06012G18KT 9SM BKN023 27/23 A3004 RMK AO2 T02720233
KPMP 200253Z AUTO 06011KT 9SM SCT027 27/23 A3004 RMK AO2 SLP174 60000 T02720228 51014
KPMP 200153Z AUTO 05016G21KT 10SM SCT026 SCT036 27/22 A3003 RMK AO2 SLP171 T02720222
KPMP 200122Z AUTO 05012KT 10SM BKN024 BKN035 27/23 A3003 RMK AO2 T02720228
KPMP 200053Z 06015KT 10SM FEW027 SCT070 27/23 A3002 RMK AO2 RAE06 SLP167 P0000 T02720228
KPMP 192353Z 06015KT 3SM +RA FEW025 SCT039 BKN065 27/24 A3000 RMK AO2 RAE2254B46 SLP160 P0008 60010 T02670239 10300 20261 53007
KPMP 192253Z 05011KT 10SM -RA SCT024 SCT037 BKN070 27/23 A2999 RMK AO2 RAB00E16B39 SLP155 P0002 T02720233
KPMP 192153Z 04012KT 10SM SCT026 BKN075 28/23 A2998 RMK AO2 SLP154 T02830233
KPMP 192053Z 04011KT 10SM SCT024 29/ A2998 RMK AO2 SLP153 T0294 55005 $